createdAt,value
2017-04-14T00:00:17.767Z,99.99
2017-04-14T00:00:58.304Z,99.99
2017-04-14T00:01:38.833Z,99.99
2017-04-14T00:02:19.382Z,99.99
2017-04-14T00:02:59.921Z,99.99
2017-04-14T00:03:40.468Z,99.99
2017-04-14T00:04:21.004Z,99.99
2017-04-14T00:05:01.536Z,99.99
2017-04-14T00:05:42.065Z,99.99
2017-04-14T00:06:22.592Z,99.99
2017-04-14T00:07:03.107Z,99.99
2017-04-14T00:07:43.648Z,99.99
2017-04-14T00:08:24.177Z,99.99
2017-04-14T00:09:04.691Z,99.99
2017-04-14T00:09:45.228Z,99.99
2017-04-14T00:10:25.748Z,99.99
2017-04-14T00:11:06.273Z,99.99
2017-04-14T00:11:46.797Z,99.99
2017-04-14T00:12:27.320Z,99.99
2017-04-14T00:13:07.835Z,99.99
2017-04-14T00:13:48.384Z,99.99
2017-04-14T00:14:28.907Z,99.99
2017-04-14T00:15:09.448Z,99.99
2017-04-14T00:15:49.966Z,99.99
2017-04-14T00:16:30.555Z,99.99
2017-04-14T00:17:11.074Z,99.99
2017-04-14T00:17:51.607Z,99.99
2017-04-14T00:18:32.148Z,99.99
2017-04-14T00:19:12.673Z,99.99
2017-04-14T00:19:53.204Z,99.99
2017-04-14T00:20:33.736Z,99.99
2017-04-14T00:21:14.284Z,99.99
2017-04-14T00:21:54.823Z,99.99
2017-04-14T00:22:35.343Z,99.99
2017-04-14T00:23:15.882Z,99.99
2017-04-14T00:23:56.387Z,99.99
2017-04-14T00:24:36.927Z,99.99
2017-04-14T00:25:17.453Z,99.99
2017-04-14T00:25:57.970Z,99.99
2017-04-14T00:26:38.496Z,99.99
2017-04-14T00:27:19.020Z,99.99
2017-04-14T00:27:59.548Z,99.99
2017-04-14T00:28:40.085Z,99.99
2017-04-14T00:29:22.133Z,99.99
2017-04-14T00:30:02.652Z,99.99
2017-04-14T00:30:43.179Z,99.99
2017-04-14T00:31:23.691Z,99.99
2017-04-14T00:32:04.221Z,99.99
2017-04-14T00:32:44.743Z,99.99
2017-04-14T00:33:25.289Z,99.99
2017-04-14T00:34:05.818Z,99.99
2017-04-14T00:34:46.343Z,99.99
2017-04-14T00:35:26.878Z,99.99
2017-04-14T00:36:07.408Z,99.99
2017-04-14T00:36:47.942Z,99.99
2017-04-14T00:37:28.469Z,99.99
2017-04-14T00:38:08.989Z,99.99
2017-04-14T00:38:49.520Z,99.99
2017-04-14T00:39:30.063Z,99.99
2017-04-14T00:40:10.598Z,99.99
2017-04-14T00:40:51.120Z,99.99
2017-04-14T00:41:31.655Z,99.99
2017-04-14T00:42:12.178Z,99.99
2017-04-14T00:42:52.719Z,99.99
2017-04-14T00:43:33.265Z,99.99
2017-04-14T00:44:13.771Z,99.99
2017-04-14T00:44:54.301Z,99.99
2017-04-14T00:45:34.843Z,99.99
2017-04-14T00:46:15.356Z,99.99
2017-04-14T00:46:55.898Z,99.99
2017-04-14T00:47:36.433Z,99.99
2017-04-14T00:48:16.930Z,99.99
2017-04-14T00:48:57.473Z,99.99
2017-04-14T00:49:38.037Z,99.99
2017-04-14T00:50:18.584Z,99.99
2017-04-14T00:50:59.114Z,99.99
2017-04-14T00:51:39.633Z,99.99
2017-04-14T00:52:20.163Z,99.99
2017-04-14T00:53:00.702Z,99.99
2017-04-14T00:53:41.247Z,99.99
2017-04-14T00:54:21.784Z,99.99
2017-04-14T00:55:02.311Z,99.99
2017-04-14T00:55:42.855Z,99.99
2017-04-14T00:56:23.384Z,99.99
2017-04-14T00:57:03.918Z,99.99
2017-04-14T00:57:44.446Z,99.99
2017-04-14T00:58:24.971Z,99.99
2017-04-14T00:59:05.474Z,99.99
2017-04-14T00:59:46.000Z,99.99
2017-04-14T01:00:26.516Z,99.99
2017-04-14T01:01:07.044Z,99.99
2017-04-14T01:01:47.571Z,99.99
2017-04-14T01:02:28.113Z,99.99
2017-04-14T01:03:08.644Z,99.99
2017-04-14T01:03:49.188Z,99.99
2017-04-14T01:04:29.727Z,99.99
2017-04-14T01:05:10.254Z,99.99
2017-04-14T01:05:50.777Z,99.99
2017-04-14T01:06:31.313Z,99.99
2017-04-14T01:07:11.851Z,99.99
2017-04-14T01:07:52.387Z,99.99
2017-04-14T01:08:32.914Z,99.99
2017-04-14T01:09:13.447Z,99.99
2017-04-14T01:09:53.965Z,99.99
2017-04-14T01:10:34.511Z,99.99
2017-04-14T01:11:15.056Z,99.99
2017-04-14T01:11:55.594Z,99.99
2017-04-14T01:12:36.117Z,99.99
2017-04-14T01:13:16.644Z,99.99
2017-04-14T01:13:57.175Z,99.99
2017-04-14T01:14:37.707Z,99.99
2017-04-14T01:15:18.248Z,99.99
2017-04-14T01:15:58.757Z,99.99
2017-04-14T01:16:39.276Z,99.99
2017-04-14T01:17:19.848Z,99.99
2017-04-14T01:18:00.373Z,99.99
2017-04-14T01:18:40.914Z,99.99
2017-04-14T01:19:21.450Z,99.99
2017-04-14T01:20:01.971Z,99.99
2017-04-14T01:20:42.483Z,99.99
2017-04-14T01:21:23.017Z,99.99
2017-04-14T01:22:03.555Z,99.99
2017-04-14T01:22:44.070Z,99.99
2017-04-14T01:23:24.598Z,99.99
2017-04-14T01:24:05.122Z,99.99
2017-04-14T01:24:45.653Z,99.99
2017-04-14T01:25:26.169Z,99.99
2017-04-14T01:26:06.688Z,99.99
2017-04-14T01:26:47.226Z,99.99
2017-04-14T01:27:27.774Z,99.99
2017-04-14T01:28:08.313Z,99.99
2017-04-14T01:28:48.841Z,99.99
2017-04-14T01:29:29.358Z,99.99
2017-04-14T01:30:09.884Z,99.99
2017-04-14T01:30:50.429Z,99.99
2017-04-14T01:31:30.974Z,99.99
2017-04-14T01:32:11.484Z,99.99
2017-04-14T01:32:52.007Z,99.99
2017-04-14T01:33:32.533Z,99.99
2017-04-14T01:34:13.063Z,99.99
2017-04-14T01:34:53.581Z,99.99
2017-04-14T01:35:34.103Z,99.99
2017-04-14T01:36:14.657Z,99.99
2017-04-14T01:36:55.219Z,99.99
2017-04-14T01:37:35.754Z,99.99
2017-04-14T01:38:16.281Z,99.99
2017-04-14T01:38:56.819Z,99.99
2017-04-14T01:39:37.356Z,99.99
2017-04-14T01:40:17.878Z,99.99
2017-04-14T01:40:58.410Z,99.99
2017-04-14T01:41:38.929Z,99.99
2017-04-14T01:42:19.478Z,99.99
2017-04-14T01:43:00.012Z,99.99
2017-04-14T01:43:40.534Z,99.99
2017-04-14T01:44:21.057Z,99.99
2017-04-14T01:45:01.579Z,99.99
2017-04-14T01:45:42.162Z,99.99
2017-04-14T01:46:22.711Z,99.99
2017-04-14T01:47:03.236Z,99.99
2017-04-14T01:47:43.781Z,99.99
2017-04-14T01:48:24.307Z,99.99
2017-04-14T01:49:04.835Z,99.99
2017-04-14T01:49:45.344Z,99.99
2017-04-14T01:50:25.879Z,99.99
2017-04-14T01:51:06.416Z,99.99
2017-04-14T01:51:46.959Z,99.99
2017-04-14T01:52:27.485Z,99.99
2017-04-14T01:53:08.016Z,99.99
2017-04-14T01:53:48.541Z,99.99
2017-04-14T01:54:29.078Z,99.99
2017-04-14T01:55:09.597Z,99.99
2017-04-14T01:55:50.141Z,99.99
2017-04-14T01:56:30.668Z,99.99
2017-04-14T01:57:11.188Z,99.99
2017-04-14T01:57:51.716Z,99.99
2017-04-14T01:58:32.244Z,99.99
2017-04-14T01:59:12.770Z,99.99
2017-04-14T01:59:53.306Z,99.99
2017-04-14T02:00:33.837Z,99.99
2017-04-14T02:01:14.394Z,99.99
2017-04-14T02:01:54.932Z,99.99
2017-04-14T02:02:35.469Z,99.99
2017-04-14T02:03:16.007Z,99.99
2017-04-14T02:03:56.539Z,99.99
2017-04-14T02:04:37.111Z,99.99
2017-04-14T02:05:17.640Z,99.99
2017-04-14T02:05:58.175Z,99.99
2017-04-14T02:06:38.686Z,99.99
2017-04-14T02:07:19.198Z,99.99
2017-04-14T02:07:59.726Z,99.99
2017-04-14T02:08:40.248Z,99.99
2017-04-14T02:09:20.789Z,99.99
2017-04-14T02:10:01.333Z,99.99
2017-04-14T02:10:41.918Z,99.99
2017-04-14T02:11:22.420Z,99.99
2017-04-14T02:12:02.952Z,99.99
2017-04-14T02:12:43.478Z,99.99
2017-04-14T02:13:24.100Z,99.99
2017-04-14T02:14:04.646Z,99.99
2017-04-14T02:14:45.179Z,99.99
2017-04-14T02:15:25.711Z,99.99
2017-04-14T02:16:06.226Z,99.99
2017-04-14T02:16:46.752Z,99.99
2017-04-14T02:17:27.289Z,99.99
2017-04-14T02:18:07.798Z,99.99
2017-04-14T02:18:48.316Z,99.99
2017-04-14T02:19:28.841Z,99.99
2017-04-14T02:20:09.373Z,99.99
2017-04-14T02:20:49.913Z,99.99
2017-04-14T02:21:30.435Z,99.99
2017-04-14T02:22:10.964Z,99.99
2017-04-14T02:22:51.501Z,99.99
2017-04-14T02:23:32.047Z,99.99
2017-04-14T02:24:12.563Z,99.99
2017-04-14T02:24:53.094Z,99.99
2017-04-14T02:25:33.608Z,99.99
2017-04-14T02:26:14.136Z,99.99
2017-04-14T02:26:54.655Z,99.99
2017-04-14T02:27:35.188Z,99.99
2017-04-14T02:28:15.710Z,99.99
2017-04-14T02:28:56.234Z,99.99
2017-04-14T02:29:36.763Z,99.99
2017-04-14T02:30:17.309Z,99.99
2017-04-14T02:30:57.847Z,99.99
2017-04-14T02:31:38.357Z,99.99
2017-04-14T02:32:18.879Z,99.99
2017-04-14T02:32:59.392Z,99.99
2017-04-14T02:33:39.907Z,99.99
2017-04-14T02:34:20.439Z,99.99
2017-04-14T02:35:00.983Z,99.99
2017-04-14T02:35:41.502Z,99.99
2017-04-14T02:36:22.056Z,99.99
2017-04-14T02:37:02.577Z,99.99
2017-04-14T02:37:43.099Z,99.99
2017-04-14T02:38:23.634Z,99.99
2017-04-14T02:39:04.167Z,99.99
2017-04-14T02:39:44.698Z,99.99
2017-04-14T02:40:25.224Z,99.99
2017-04-14T02:41:05.742Z,99.99
2017-04-14T02:41:46.272Z,99.99
2017-04-14T02:42:26.798Z,99.99
2017-04-14T02:43:07.324Z,99.99
2017-04-14T02:43:47.859Z,99.99
2017-04-14T02:44:28.406Z,99.99
2017-04-14T02:45:08.945Z,99.99
2017-04-14T02:45:49.488Z,99.99
2017-04-14T02:46:30.019Z,99.99
2017-04-14T02:47:10.542Z,99.99
2017-04-14T02:47:51.069Z,99.99
2017-04-14T02:48:31.604Z,99.99
2017-04-14T02:49:12.135Z,99.99
2017-04-14T02:49:52.679Z,99.99
2017-04-14T02:50:33.208Z,99.99
2017-04-14T02:51:13.737Z,99.99
2017-04-14T02:51:54.268Z,99.99
2017-04-14T02:52:34.806Z,99.99
2017-04-14T02:53:15.328Z,99.99
2017-04-14T02:53:55.867Z,99.99
2017-04-14T02:54:36.376Z,99.99
2017-04-14T02:55:16.914Z,99.99
2017-04-14T02:55:57.456Z,99.99
2017-04-14T02:56:37.978Z,99.99
2017-04-14T02:57:18.494Z,99.99
2017-04-14T02:57:59.036Z,99.99
2017-04-14T02:58:39.558Z,99.99
2017-04-14T02:59:20.086Z,99.99
2017-04-14T03:00:00.630Z,99.99
2017-04-14T03:00:41.121Z,99.99
2017-04-14T03:01:21.655Z,99.99
2017-04-14T03:02:02.174Z,99.99
2017-04-14T03:02:42.700Z,99.99
2017-04-14T03:03:23.232Z,99.99
2017-04-14T03:04:03.774Z,99.99
2017-04-14T03:04:44.329Z,99.99
2017-04-14T03:05:24.862Z,99.99
2017-04-14T03:06:05.395Z,99.99
2017-04-14T03:06:45.927Z,99.99
2017-04-14T03:07:26.466Z,99.99
2017-04-14T03:08:06.994Z,99.99
2017-04-14T03:08:47.517Z,99.99
2017-04-14T03:09:28.046Z,99.99
2017-04-14T03:10:08.563Z,99.99
2017-04-14T03:10:49.095Z,99.99
2017-04-14T03:11:29.613Z,99.99
2017-04-14T03:12:10.138Z,99.99
2017-04-14T03:12:50.676Z,99.99
2017-04-14T03:13:31.202Z,99.99
2017-04-14T03:14:11.736Z,99.99
2017-04-14T03:14:52.262Z,99.99
2017-04-14T03:15:32.794Z,99.99
2017-04-14T03:16:13.320Z,99.99
2017-04-14T03:16:53.858Z,99.99
2017-04-14T03:17:34.395Z,99.99
2017-04-14T03:18:14.922Z,99.99
2017-04-14T03:18:55.443Z,99.99
2017-04-14T03:19:35.974Z,99.99
2017-04-14T03:20:16.518Z,99.99
2017-04-14T03:20:57.043Z,99.99
2017-04-14T03:21:37.589Z,99.99
2017-04-14T03:22:18.116Z,99.99
2017-04-14T03:22:58.647Z,99.99
2017-04-14T03:23:39.194Z,99.99
2017-04-14T03:24:19.724Z,99.99
2017-04-14T03:25:00.244Z,99.99
2017-04-14T03:25:40.771Z,99.99
2017-04-14T03:26:21.291Z,99.99
2017-04-14T03:27:01.815Z,99.99
2017-04-14T03:27:42.330Z,99.99
2017-04-14T03:28:22.862Z,99.99
2017-04-14T03:29:03.389Z,99.99
2017-04-14T03:29:43.905Z,99.99
2017-04-14T03:30:24.481Z,99.99
2017-04-14T03:31:04.995Z,99.99
2017-04-14T03:31:45.588Z,99.99
2017-04-14T03:32:26.133Z,99.99
2017-04-14T03:33:06.687Z,99.99
2017-04-14T03:33:47.392Z,99.99
2017-04-14T03:34:27.959Z,99.99
2017-04-14T03:35:08.514Z,99.99
2017-04-14T03:35:49.064Z,99.99
2017-04-14T03:36:29.626Z,99.99
2017-04-14T03:37:10.175Z,99.99
2017-04-14T03:37:50.686Z,99.99
2017-04-14T03:38:31.253Z,99.99
2017-04-14T03:39:11.821Z,99.99
2017-04-14T03:39:52.406Z,99.99
2017-04-14T03:40:32.945Z,99.99
2017-04-14T03:41:13.470Z,99.99
2017-04-14T03:41:53.998Z,99.99
2017-04-14T03:42:34.577Z,99.99
2017-04-14T03:43:15.152Z,99.99
2017-04-14T03:43:55.717Z,99.99
2017-04-14T03:44:36.229Z,99.99
2017-04-14T03:45:16.752Z,99.99
2017-04-14T03:45:57.286Z,99.99
2017-04-14T03:46:37.818Z,99.99
2017-04-14T03:47:18.386Z,99.99
2017-04-14T03:47:58.959Z,99.99
2017-04-14T03:48:39.499Z,99.99
2017-04-14T03:49:20.067Z,99.99
2017-04-14T03:50:00.597Z,99.99
2017-04-14T03:50:41.169Z,99.99
2017-04-14T03:51:21.731Z,99.99
2017-04-14T03:52:02.278Z,99.99
2017-04-14T03:52:42.851Z,99.99
2017-04-14T03:53:23.388Z,99.99
2017-04-14T03:54:03.960Z,99.99
2017-04-14T03:54:44.558Z,99.99
2017-04-14T03:55:25.146Z,99.99
2017-04-14T03:56:05.680Z,99.99
2017-04-14T03:56:46.216Z,99.99
2017-04-14T03:57:26.809Z,99.99
2017-04-14T03:58:07.306Z,99.99
2017-04-14T03:58:47.857Z,99.99
2017-04-14T04:00:53.063Z,99.99
2017-04-14T04:01:35.828Z,99.99
2017-04-14T04:02:16.360Z,99.99
2017-04-14T04:02:59.735Z,99.99
2017-04-14T04:03:40.277Z,99.99
2017-04-14T04:04:20.804Z,99.99
2017-04-14T04:05:01.324Z,99.99
2017-04-14T04:05:41.851Z,99.99
2017-04-14T04:06:22.377Z,99.99
2017-04-14T04:07:02.907Z,99.99
2017-04-14T04:07:43.441Z,99.99
2017-04-14T04:08:23.976Z,99.99
2017-04-14T04:09:04.500Z,99.99
2017-04-14T04:09:45.030Z,99.99
2017-04-14T04:10:25.584Z,99.99
2017-04-14T04:11:06.051Z,99.99
2017-04-14T04:11:46.577Z,99.99
2017-04-14T04:12:27.106Z,99.99
2017-04-14T04:13:07.630Z,99.99
2017-04-14T04:13:48.155Z,99.99
2017-04-14T04:14:28.664Z,99.99
2017-04-14T04:15:09.185Z,99.99
2017-04-14T04:15:49.703Z,99.99
2017-04-14T04:16:30.204Z,99.99
2017-04-14T04:17:10.740Z,99.99
2017-04-14T04:17:51.273Z,99.99
2017-04-14T04:18:31.801Z,99.99
2017-04-14T04:19:12.295Z,99.99
2017-04-14T04:19:52.814Z,99.99
2017-04-14T04:20:33.346Z,99.99
2017-04-14T04:21:13.872Z,99.99
2017-04-14T04:21:54.408Z,99.99
2017-04-14T04:22:34.931Z,99.99
2017-04-14T04:23:15.454Z,99.99
2017-04-14T04:23:55.982Z,99.99
2017-04-14T04:24:36.517Z,99.99
2017-04-14T04:25:17.060Z,99.99
2017-04-14T04:25:57.590Z,99.99
2017-04-14T04:26:38.110Z,99.99
2017-04-14T04:27:18.655Z,99.99
2017-04-14T04:27:59.169Z,99.99
2017-04-14T04:28:39.704Z,99.99
2017-04-14T04:29:20.244Z,99.99
2017-04-14T04:30:00.783Z,99.99
2017-04-14T04:30:41.295Z,99.99
2017-04-14T04:31:21.840Z,99.99
2017-04-14T04:32:02.364Z,99.99
2017-04-14T04:32:42.885Z,99.99
2017-04-14T04:33:23.410Z,99.99
2017-04-14T04:34:03.919Z,99.99
2017-04-14T04:34:44.465Z,99.99
2017-04-14T04:35:25.010Z,99.99
2017-04-14T04:36:05.543Z,99.99
2017-04-14T04:36:46.070Z,99.99
2017-04-14T04:37:26.588Z,99.99
2017-04-14T04:38:07.122Z,99.99
2017-04-14T04:38:47.656Z,99.99
2017-04-14T04:39:28.188Z,99.99
2017-04-14T04:40:08.700Z,99.99
2017-04-14T04:40:49.234Z,99.99
2017-04-14T04:41:29.753Z,99.99
2017-04-14T04:42:10.300Z,99.99
2017-04-14T04:42:50.805Z,99.99
2017-04-14T04:43:31.334Z,99.99
2017-04-14T04:44:11.861Z,99.99
2017-04-14T04:44:52.399Z,99.99
2017-04-14T04:45:32.910Z,99.99
2017-04-14T04:46:13.418Z,99.99
2017-04-14T04:46:53.939Z,99.99
2017-04-14T04:47:34.474Z,99.99
2017-04-14T04:48:15.001Z,99.99
2017-04-14T04:48:55.521Z,99.99
2017-04-14T04:49:36.074Z,99.99
2017-04-14T04:50:16.606Z,99.99
2017-04-14T04:50:57.136Z,99.99
2017-04-14T04:51:37.668Z,99.99
2017-04-14T04:52:18.205Z,99.99
2017-04-14T04:52:58.728Z,99.99
2017-04-14T04:53:39.270Z,99.99
2017-04-14T04:54:19.846Z,99.99
2017-04-14T04:55:00.879Z,99.99
2017-04-14T04:55:41.602Z,99.99
2017-04-14T04:56:22.122Z,99.99
2017-04-14T04:57:02.644Z,99.99
2017-04-14T04:57:43.183Z,99.99
2017-04-14T04:58:23.732Z,99.99
2017-04-14T04:59:04.439Z,99.99
2017-04-14T04:59:44.955Z,99.99
2017-04-14T05:00:25.483Z,99.99
2017-04-14T05:01:06.031Z,99.99
2017-04-14T05:01:46.544Z,99.99
2017-04-14T05:02:27.078Z,99.99
2017-04-14T05:03:07.604Z,99.99
2017-04-14T05:03:48.159Z,99.99
2017-04-14T05:04:28.711Z,99.99
2017-04-14T05:05:09.226Z,99.91
2017-04-14T05:05:49.752Z,99.72
2017-04-14T05:06:30.285Z,99.72
2017-04-14T05:07:10.803Z,99.44
2017-04-14T05:07:51.342Z,99.91
2017-04-14T05:08:31.884Z,99.82
2017-04-14T05:09:12.404Z,99.82
2017-04-14T05:09:52.934Z,99.72
2017-04-14T05:10:33.462Z,99.72
2017-04-14T05:11:13.980Z,99.72
2017-04-14T05:11:54.506Z,99.63
2017-04-14T05:12:35.033Z,99.99
2017-04-14T05:13:15.558Z,99.63
2017-04-14T05:13:56.103Z,98.3
2017-04-14T05:14:36.625Z,99.15
2017-04-14T05:15:17.138Z,99.06
2017-04-14T05:15:57.654Z,98.96
2017-04-14T05:16:38.160Z,99.15
2017-04-14T05:17:18.682Z,98.96
2017-04-14T05:17:59.211Z,99.15
2017-04-14T05:18:39.718Z,99.15
2017-04-14T05:19:20.242Z,99.15
2017-04-14T05:20:00.762Z,98.3
2017-04-14T05:20:41.302Z,98.11
2017-04-14T05:21:21.834Z,98.3
2017-04-14T05:22:02.350Z,98.21
2017-04-14T05:22:42.878Z,98.3
2017-04-14T05:23:23.413Z,98.21
2017-04-14T05:24:03.914Z,98.58
2017-04-14T05:24:44.437Z,97.73
2017-04-14T05:25:24.957Z,97.83
2017-04-14T05:26:05.502Z,98.02
2017-04-14T05:26:46.037Z,98.3
2017-04-14T05:27:26.588Z,97.73
2017-04-14T05:28:07.125Z,97.83
2017-04-14T05:28:47.642Z,96.88
2017-04-14T05:29:28.188Z,96.97
2017-04-14T05:30:08.695Z,97.26
2017-04-14T05:30:49.215Z,97.45
2017-04-14T05:31:29.726Z,97.26
2017-04-14T05:32:10.259Z,97.02
2017-04-14T05:32:50.791Z,97.07
2017-04-14T05:33:31.309Z,96.97
2017-04-14T05:34:11.825Z,96.92
2017-04-14T05:34:52.343Z,96.92
2017-04-14T05:35:32.900Z,96.69
2017-04-14T05:36:13.428Z,97.02
2017-04-14T05:36:53.954Z,96.69
2017-04-14T05:37:34.493Z,96.5
2017-04-14T05:38:15.020Z,96.88
2017-04-14T05:38:55.576Z,96.55
2017-04-14T05:39:36.127Z,96.36
2017-04-14T05:40:16.642Z,96.64
2017-04-14T05:40:57.171Z,96.55
2017-04-14T05:41:37.694Z,96.64
2017-04-14T05:42:18.229Z,96.45
2017-04-14T05:42:58.754Z,96.45
2017-04-14T05:43:39.295Z,96.73
2017-04-14T05:44:19.830Z,96.45
2017-04-14T05:45:00.421Z,96.45
2017-04-14T05:45:40.951Z,96.55
2017-04-14T05:46:21.475Z,96.73
2017-04-14T05:47:01.984Z,96.64
2017-04-14T05:47:42.524Z,96.36
2017-04-14T05:48:23.057Z,95.88
2017-04-14T05:49:03.576Z,95.41
2017-04-14T05:49:44.125Z,95.6
2017-04-14T05:50:24.656Z,95.41
2017-04-14T05:51:05.184Z,95.31
2017-04-14T05:51:46.501Z,95.6
2017-04-14T05:52:27.012Z,95.79
2017-04-14T05:53:07.643Z,95.98
2017-04-14T05:53:48.463Z,95.79
2017-04-14T05:54:29.115Z,95.69
2017-04-14T05:55:09.688Z,95.69
2017-04-14T05:55:50.249Z,95.41
2017-04-14T05:56:30.720Z,95.6
2017-04-14T05:57:11.360Z,95.6
2017-04-14T05:57:51.922Z,95.69
2017-04-14T05:58:32.433Z,95.79
2017-04-14T05:59:12.979Z,95.6
2017-04-14T05:59:53.495Z,95.69
2017-04-14T06:00:34.049Z,96.17
2017-04-14T06:01:14.564Z,96.08
2017-04-14T06:01:55.086Z,95.98
2017-04-14T06:02:35.646Z,96.08
2017-04-14T06:03:16.183Z,96.17
2017-04-14T06:03:56.720Z,96.17
2017-04-14T06:04:37.226Z,96.17
2017-04-14T06:05:17.760Z,96.08
2017-04-14T06:05:58.385Z,96.17
2017-04-14T06:06:38.919Z,95.69
2017-04-14T06:07:19.406Z,95.5
2017-04-14T06:07:59.927Z,95.6
2017-04-14T06:08:40.449Z,95.5
2017-04-14T06:09:20.972Z,95.69
2017-04-14T06:10:01.500Z,95.6
2017-04-14T06:10:42.076Z,95.88
2017-04-14T06:11:22.604Z,95.88
2017-04-14T06:12:03.119Z,95.5
2017-04-14T06:12:43.652Z,95.69
2017-04-14T06:13:24.233Z,95.98
2017-04-14T06:14:04.750Z,95.88
2017-04-14T06:14:45.273Z,95.6
2017-04-14T06:15:25.813Z,95.88
2017-04-14T06:16:06.340Z,95.5
2017-04-14T06:16:46.882Z,95.12
2017-04-14T06:17:27.409Z,95.69
2017-04-14T06:18:07.935Z,95.41
2017-04-14T06:18:48.458Z,95.79
2017-04-14T06:19:29.067Z,95.5
2017-04-14T06:20:09.577Z,95.5
2017-04-14T06:20:50.108Z,95.5
2017-04-14T06:21:30.632Z,95.55
2017-04-14T06:22:11.247Z,95.69
2017-04-14T06:22:51.767Z,96.12
2017-04-14T06:23:32.317Z,96.12
2017-04-14T06:24:12.863Z,96.12
2017-04-14T06:24:53.381Z,96.03
2017-04-14T06:25:33.897Z,96.12
2017-04-14T06:26:14.430Z,96.22
2017-04-14T06:26:55.002Z,96.03
2017-04-14T06:27:35.564Z,95.84
2017-04-14T06:28:16.166Z,95.36
2017-04-14T06:28:56.693Z,95.65
2017-04-14T06:29:37.219Z,96.03
2017-04-14T06:30:17.768Z,96.12
2017-04-14T06:30:58.302Z,95.74
2017-04-14T06:31:38.840Z,96.12
2017-04-14T06:32:19.398Z,95.46
2017-04-14T06:32:59.932Z,96.59
2017-04-14T06:33:40.576Z,96.59
2017-04-14T06:34:21.128Z,96.59
2017-04-14T06:35:01.707Z,96.59
2017-04-14T06:35:42.370Z,96.31
2017-04-14T06:36:22.918Z,96.69
2017-04-14T06:37:03.522Z,96.59
2017-04-14T06:37:44.214Z,96.69
2017-04-14T06:38:24.754Z,97.07
2017-04-14T06:39:05.341Z,97.17
2017-04-14T06:39:45.913Z,96.88
2017-04-14T06:40:26.497Z,97.07
2017-04-14T06:41:07.047Z,96.97
2017-04-14T06:41:47.846Z,97.36
2017-04-14T06:42:28.517Z,97.26
2017-04-14T06:43:09.087Z,97.26
2017-04-14T06:43:49.787Z,97.55
2017-04-14T06:44:30.323Z,97.92
2017-04-14T06:45:10.883Z,98.35
2017-04-14T06:45:51.421Z,98.35
2017-04-14T06:46:31.992Z,98.26
2017-04-14T06:47:12.515Z,98.07
2017-04-14T06:47:53.038Z,98.73
2017-04-14T06:48:33.576Z,98.54
2017-04-14T06:49:14.178Z,98.73
2017-04-14T06:49:55.145Z,99.11
2017-04-14T06:50:36.102Z,99.87
2017-04-14T06:51:16.222Z,99.99
2017-04-14T06:51:56.749Z,99.99
2017-04-14T06:52:37.314Z,99.99
2017-04-14T06:53:18.109Z,99.99
2017-04-14T06:53:58.832Z,99.99
2017-04-14T06:54:39.424Z,99.99
2017-04-14T06:55:20.118Z,99.99
2017-04-14T06:56:00.675Z,99.99
2017-04-14T06:56:41.349Z,99.99
2017-04-14T06:57:21.870Z,99.99
2017-04-14T06:58:02.423Z,99.99
2017-04-14T06:58:43.003Z,99.99
2017-04-14T06:59:23.542Z,99.99
2017-04-14T07:00:04.080Z,99.99
2017-04-14T07:00:44.654Z,99.99
2017-04-14T07:01:25.339Z,99.99
2017-04-14T07:02:05.863Z,99.99
2017-04-14T07:02:46.471Z,99.99
2017-04-14T07:03:27.145Z,99.99
2017-04-14T07:04:07.825Z,99.99
2017-04-14T07:04:48.396Z,99.99
2017-04-14T07:05:28.927Z,99.99
2017-04-14T07:06:09.471Z,99.99
2017-04-14T07:06:49.995Z,99.99
2017-04-14T07:07:30.610Z,99.99
2017-04-14T07:08:11.234Z,99.99
2017-04-14T07:08:51.938Z,99.99
2017-04-14T07:09:32.484Z,99.99
2017-04-14T07:10:13.059Z,99.99
2017-04-14T07:10:53.716Z,99.99
2017-04-14T07:11:34.299Z,99.99
2017-04-14T07:13:53.875Z,99.99
2017-04-14T07:14:34.415Z,99.99
2017-04-14T07:15:14.973Z,99.99
2017-04-14T07:15:55.514Z,99.99
2017-04-14T07:16:36.040Z,99.99
2017-04-14T07:17:16.634Z,99.99
2017-04-14T07:17:57.227Z,99.99
2017-04-14T07:18:37.778Z,99.99
2017-04-14T07:19:18.363Z,99.99
2017-04-14T07:19:58.897Z,99.99
2017-04-14T07:20:39.494Z,99.99
2017-04-14T07:21:20.075Z,99.99
2017-04-14T07:22:00.641Z,99.99
2017-04-14T07:22:41.204Z,99.99
2017-04-14T07:23:21.752Z,99.99
2017-04-14T07:24:02.357Z,99.99
2017-04-14T07:24:42.955Z,99.99
2017-04-14T07:25:23.637Z,99.99
2017-04-14T07:26:04.130Z,99.99
2017-04-14T07:26:44.670Z,99.99
2017-04-14T07:27:26.080Z,99.99
2017-04-14T07:28:06.688Z,99.99
2017-04-14T07:28:47.266Z,99.99
2017-04-14T07:29:27.904Z,99.99
2017-04-14T07:30:08.451Z,99.99
2017-04-14T07:30:49.112Z,99.99
2017-04-14T07:31:29.674Z,99.99
2017-04-14T07:32:10.287Z,99.99
2017-04-14T07:32:50.831Z,99.99
2017-04-14T07:33:31.335Z,99.99
2017-04-14T07:34:11.890Z,99.99
2017-04-14T07:34:52.620Z,99.99
2017-04-14T07:35:33.302Z,99.99
2017-04-14T07:36:13.868Z,99.99
2017-04-14T07:36:54.409Z,99.99
2017-04-14T07:37:34.975Z,99.99
2017-04-14T07:38:15.614Z,99.99
2017-04-14T07:38:56.200Z,99.99
2017-04-14T07:39:36.823Z,99.99
2017-04-14T07:40:17.466Z,99.99
2017-04-14T07:40:58.067Z,99.99
2017-04-14T07:41:38.634Z,99.99
2017-04-14T07:42:19.178Z,99.99
2017-04-14T07:42:59.787Z,99.99
2017-04-14T07:43:40.434Z,99.99
2017-04-14T07:44:21.000Z,99.99
2017-04-14T07:45:01.616Z,99.99
2017-04-14T07:45:42.229Z,99.99
2017-04-14T07:46:22.765Z,99.99
2017-04-14T07:47:03.347Z,99.99
2017-04-14T07:47:43.876Z,99.99
2017-04-14T07:48:24.452Z,99.99
2017-04-14T07:49:05.007Z,99.99
2017-04-14T07:49:45.579Z,99.99
2017-04-14T07:50:26.157Z,99.99
2017-04-14T07:51:06.772Z,99.99
2017-04-14T07:51:47.530Z,99.99
2017-04-14T07:52:28.351Z,99.99
2017-04-14T07:53:09.480Z,99.99
2017-04-14T07:53:52.152Z,99.99
2017-04-14T07:54:33.090Z,99.99
2017-04-14T07:55:13.766Z,99.99
2017-04-14T07:55:54.521Z,99.99
2017-04-14T07:56:35.241Z,99.99
2017-04-14T07:57:16.014Z,99.99
2017-04-14T07:57:56.859Z,99.99
2017-04-14T07:58:37.533Z,99.99
2017-04-14T07:59:18.268Z,99.99
2017-04-14T07:59:59.057Z,99.99
2017-04-14T08:00:39.849Z,99.99
2017-04-14T08:01:20.556Z,99.99
2017-04-14T08:02:01.234Z,99.99
2017-04-14T08:02:41.959Z,99.99
2017-04-14T08:03:22.664Z,99.99
2017-04-14T08:04:03.564Z,99.99
2017-04-14T08:04:44.317Z,99.99
2017-04-14T08:05:24.990Z,99.99
2017-04-14T08:06:05.503Z,99.99
2017-04-14T08:06:46.087Z,99.99
2017-04-14T08:07:26.757Z,99.99
2017-04-14T08:08:07.547Z,99.99
2017-04-14T08:08:48.151Z,99.99
2017-04-14T08:09:28.842Z,99.99
2017-04-14T08:10:09.528Z,99.99
2017-04-14T08:10:50.143Z,99.99
2017-04-14T08:11:30.649Z,99.99
2017-04-14T08:12:11.288Z,99.99
2017-04-14T08:12:51.859Z,99.99
2017-04-14T08:13:32.407Z,99.99
2017-04-14T08:14:13.111Z,99.99
2017-04-14T08:14:53.802Z,99.99
2017-04-14T08:15:34.617Z,99.99
2017-04-14T08:16:15.246Z,99.99
2017-04-14T08:16:55.881Z,99.99
2017-04-14T08:17:36.659Z,99.99
2017-04-14T08:18:17.447Z,99.99
2017-04-14T08:18:58.169Z,99.99
2017-04-14T08:19:38.838Z,99.99
2017-04-14T08:20:19.537Z,99.99
2017-04-14T08:21:00.289Z,99.99
2017-04-14T08:21:41.037Z,99.99
2017-04-14T08:22:21.820Z,99.99
2017-04-14T08:23:02.480Z,99.99
2017-04-14T08:23:43.259Z,99.99
2017-04-14T08:24:23.857Z,99.99
2017-04-14T08:25:04.538Z,99.99
2017-04-14T08:25:45.240Z,99.99
2017-04-14T08:26:25.826Z,99.99
2017-04-14T08:27:06.550Z,99.99
2017-04-14T08:27:47.058Z,99.99
2017-04-14T08:28:27.829Z,99.99
2017-04-14T08:29:08.587Z,97.18
2017-04-14T08:29:49.094Z,95.12
2017-04-14T08:30:29.769Z,93.79
2017-04-14T08:31:10.771Z,93.7
2017-04-14T08:31:51.598Z,93.12
2017-04-14T08:32:32.737Z,92.93
2017-04-14T08:33:13.802Z,92.26
2017-04-14T08:33:55.763Z,91.83
2017-04-14T08:34:38.729Z,90.97
2017-04-14T08:35:21.228Z,88.96
2017-04-14T08:36:02.066Z,88.01
2017-04-14T08:36:42.983Z,87.43
2017-04-14T08:37:23.945Z,85.81
2017-04-14T08:38:04.841Z,84.52
2017-04-14T08:38:45.844Z,83.9
2017-04-14T08:39:26.507Z,84.03
2017-04-14T08:40:07.594Z,83.37
2017-04-14T08:40:48.469Z,82.7
2017-04-14T08:41:29.102Z,81.93
2017-04-14T08:42:09.902Z,81.3
2017-04-14T08:42:50.631Z,78.3
2017-04-14T08:43:31.308Z,76.96
2017-04-14T08:44:11.944Z,77.63
2017-04-14T08:44:52.755Z,77.53
2017-04-14T08:45:33.632Z,77.63
2017-04-14T08:46:14.217Z,77.15